createdAt,value
2023-05-20T00:00:42.622Z,1.95
2023-05-20T00:03:10.671Z,2.33
2023-05-20T00:05:38.872Z,2.33
2023-05-20T00:08:09.337Z,2.50
2023-05-20T00:10:38.762Z,3.65
2023-05-20T00:13:07.534Z,1.73
2023-05-20T00:15:36.598Z,2.17
2023-05-20T00:18:05.676Z,2.88
2023-05-20T00:20:34.130Z,2.17
2023-05-20T00:23:02.074Z,2.20
2023-05-20T00:25:31.673Z,2.10
2023-05-20T00:28:03.265Z,2.28
2023-05-20T00:30:32.549Z,2.55
2023-05-20T00:33:00.675Z,2.80
2023-05-20T00:35:28.868Z,2.47
2023-05-20T00:37:56.769Z,2.10
2023-05-20T00:40:25.369Z,2.03
2023-05-20T00:42:53.364Z,1.90
2023-05-20T00:45:22.872Z,2.30
2023-05-20T00:47:50.874Z,2.90
2023-05-20T00:50:18.961Z,2.53
2023-05-20T00:52:48.325Z,3.28
2023-05-20T00:55:16.899Z,1.90
2023-05-20T00:57:44.920Z,3.33
2023-05-20T01:00:14.664Z,2.10
2023-05-20T01:02:44.139Z,2.08
2023-05-20T01:05:12.286Z,1.70
2023-05-20T01:07:40.939Z,2.20
2023-05-20T01:10:10.603Z,2.22
2023-05-20T01:12:43.517Z,3.55
2023-05-20T01:15:12.911Z,2.33
2023-05-20T01:17:45.291Z,1.85
2023-05-20T01:20:15.374Z,2.40
2023-05-20T01:22:50.380Z,2.17
2023-05-20T01:25:18.400Z,2.95
2023-05-20T01:27:48.881Z,2.47
2023-05-20T01:30:17.566Z,3.17
2023-05-20T01:32:49.423Z,1.60
2023-05-20T01:35:18.890Z,1.80
2023-05-20T01:37:49.335Z,3.90
2023-05-20T01:40:18.174Z,2.70
2023-05-20T01:42:52.682Z,2.20
2023-05-20T01:45:21.972Z,3.60
2023-05-20T01:47:51.155Z,2.90
2023-05-20T01:50:19.330Z,2.03
2023-05-20T01:52:47.288Z,3.35
2023-05-20T01:55:16.660Z,3.78
2023-05-20T01:57:44.936Z,2.22
2023-05-20T02:00:13.844Z,2.63
2023-05-20T02:02:41.936Z,3.38
2023-05-20T02:05:12.480Z,1.50
2023-05-20T02:07:40.481Z,3.10
2023-05-20T02:10:09.307Z,2.00
2023-05-20T02:12:39.364Z,1.85
2023-05-20T02:15:08.784Z,3.10
2023-05-20T02:17:39.803Z,2.50
2023-05-20T02:20:09.287Z,2.60
2023-05-20T02:22:37.455Z,3.65
2023-05-20T02:25:05.972Z,1.88
2023-05-20T02:27:34.132Z,1.75
2023-05-20T02:30:03.449Z,2.15
2023-05-20T02:32:31.523Z,1.98
2023-05-20T02:35:00.684Z,2.90
2023-05-20T02:37:29.517Z,2.35
2023-05-20T02:39:57.559Z,2.97
2023-05-20T02:42:25.634Z,2.05
2023-05-20T02:44:56.561Z,2.38
2023-05-20T02:47:26.490Z,2.33
2023-05-20T02:49:54.570Z,2.53
2023-05-20T02:52:23.133Z,1.90
2023-05-20T02:54:52.728Z,2.03
2023-05-20T02:57:21.104Z,2.05
2023-05-20T02:59:49.068Z,1.67
2023-05-20T03:02:17.349Z,3.97
2023-05-20T03:04:47.412Z,2.40
2023-05-20T03:07:19.451Z,2.67
2023-05-20T03:09:47.479Z,2.70
2023-05-20T03:12:15.516Z,2.25
2023-05-20T03:14:43.457Z,2.10
2023-05-20T03:17:12.345Z,2.13
2023-05-20T03:19:41.252Z,3.08
2023-05-20T03:22:10.675Z,2.00
2023-05-20T03:24:38.611Z,2.65
2023-05-20T03:27:07.045Z,2.40
2023-05-20T03:29:36.162Z,2.13
2023-05-20T03:32:04.216Z,2.40
2023-05-20T03:34:32.202Z,2.25
2023-05-20T03:37:01.321Z,2.17
2023-05-20T03:39:30.766Z,2.58
2023-05-20T03:41:58.700Z,2.80
2023-05-20T03:44:27.102Z,2.17
2023-05-20T03:46:55.714Z,1.75
2023-05-20T03:49:23.993Z,2.28
2023-05-20T03:51:52.669Z,1.55
2023-05-20T03:54:20.594Z,2.92
2023-05-20T03:56:52.773Z,3.58
2023-05-20T03:59:22.333Z,2.83
2023-05-20T04:01:50.580Z,2.00
2023-05-20T04:04:19.091Z,2.80
2023-05-20T04:06:47.224Z,2.22
2023-05-20T04:09:15.803Z,2.05
2023-05-20T04:11:43.790Z,3.28
2023-05-20T04:14:13.159Z,2.00
2023-05-20T04:16:41.218Z,2.10
2023-05-20T04:19:09.309Z,2.65
2023-05-20T04:21:37.467Z,2.63
2023-05-20T04:24:05.835Z,3.38
2023-05-20T04:26:33.975Z,2.58
2023-05-20T04:29:04.228Z,2.75
2023-05-20T04:31:38.423Z,2.60
2023-05-20T04:34:06.386Z,1.80
2023-05-20T04:36:34.669Z,2.60
2023-05-20T04:39:05.108Z,1.85
2023-05-20T04:41:33.055Z,1.83
2023-05-20T04:44:03.971Z,2.85
2023-05-20T04:46:32.101Z,2.90
2023-05-20T04:49:01.614Z,2.63
2023-05-20T04:51:30.366Z,2.30
2023-05-20T04:53:59.649Z,2.40
2023-05-20T04:56:30.086Z,3.03
2023-05-20T04:58:58.698Z,2.38
2023-05-20T05:01:26.876Z,2.03
2023-05-20T05:03:54.923Z,3.10
2023-05-20T05:06:24.424Z,2.75
2023-05-20T05:08:52.342Z,3.22
2023-05-20T05:11:21.140Z,2.33
2023-05-20T05:13:49.146Z,2.33
2023-05-20T05:16:17.502Z,1.90
2023-05-20T05:18:45.602Z,1.35
2023-05-20T05:21:13.583Z,2.22
2023-05-20T05:23:44.007Z,1.58
2023-05-20T05:26:17.625Z,2.42
2023-05-20T05:28:46.090Z,2.10
2023-05-20T05:31:14.523Z,2.50
2023-05-20T05:33:42.585Z,1.90
2023-05-20T05:36:12.267Z,2.13
2023-05-20T05:38:45.026Z,2.05
2023-05-20T05:41:13.007Z,2.15
2023-05-20T05:43:40.954Z,2.13
2023-05-20T05:46:21.233Z,2.10
2023-05-20T05:48:59.825Z,1.80
2023-05-20T05:51:31.621Z,2.75
2023-05-20T05:54:01.158Z,2.08
2023-05-20T05:56:34.133Z,3.85
2023-05-20T05:59:05.580Z,2.33
2023-05-20T06:01:33.821Z,2.90
2023-05-20T06:04:10.918Z,2.28
2023-05-20T06:06:40.006Z,1.88
2023-05-20T06:09:09.371Z,2.20
2023-05-20T06:11:42.195Z,1.85
2023-05-20T06:14:11.118Z,1.65
2023-05-20T06:16:39.285Z,1.77
2023-05-20T06:19:09.278Z,1.48
2023-05-20T06:21:37.458Z,1.95
2023-05-20T06:24:06.268Z,2.40
2023-05-20T06:26:38.186Z,1.30
2023-05-20T06:29:06.729Z,1.73
2023-05-20T06:31:36.608Z,2.72
2023-05-20T06:34:04.665Z,2.22
2023-05-20T06:36:33.743Z,1.90
2023-05-20T06:39:01.930Z,1.73
2023-05-20T06:41:30.608Z,1.58
2023-05-20T06:44:00.163Z,1.40
2023-05-20T06:46:46.817Z,1.73
2023-05-20T06:49:18.364Z,1.88
2023-05-20T06:51:46.511Z,1.63
2023-05-20T06:54:15.014Z,1.52
2023-05-20T06:56:45.364Z,1.48
2023-05-20T06:59:14.846Z,1.90
2023-05-20T07:01:44.138Z,1.65
2023-05-20T07:04:13.275Z,2.10
2023-05-20T07:06:41.392Z,2.25
2023-05-20T07:09:10.454Z,1.83
2023-05-20T07:11:38.723Z,2.15
2023-05-20T07:14:08.591Z,2.35
2023-05-20T07:16:38.086Z,1.38
2023-05-20T07:19:06.787Z,2.15
2023-05-20T07:21:36.253Z,2.33
2023-05-20T07:24:19.244Z,2.03
2023-05-20T07:26:47.199Z,2.03
2023-05-20T07:29:15.612Z,1.90
2023-05-20T07:31:49.044Z,1.98
2023-05-20T07:34:18.354Z,1.70
2023-05-20T07:36:47.217Z,1.83
2023-05-20T07:39:16.380Z,2.03
2023-05-20T07:41:45.192Z,1.95
2023-05-20T07:44:14.398Z,1.67
2023-05-20T07:46:47.170Z,1.80
2023-05-20T07:49:15.440Z,3.75
2023-05-20T07:51:44.024Z,1.65
2023-05-20T07:54:12.813Z,2.00
2023-05-20T07:56:41.075Z,1.30
2023-05-20T07:59:10.938Z,2.10
2023-05-20T08:01:45.146Z,2.20
2023-05-20T08:04:16.846Z,4.18
2023-05-20T08:06:45.699Z,1.42
2023-05-20T08:09:21.689Z,2.28
2023-05-20T08:11:52.757Z,2.10
2023-05-20T08:14:20.882Z,1.85
2023-05-20T08:16:54.532Z,1.65
2023-05-20T08:19:24.424Z,1.90
2023-05-20T08:21:55.481Z,1.52
2023-05-20T08:24:23.405Z,2.25
2023-05-20T08:26:54.082Z,1.77
2023-05-20T08:29:24.487Z,2.17
2023-05-20T08:31:53.293Z,1.52
2023-05-20T08:34:24.044Z,1.13
2023-05-20T08:36:57.149Z,1.83
2023-05-20T08:39:25.147Z,1.33
2023-05-20T08:41:53.339Z,1.35
2023-05-20T08:44:23.812Z,1.50
2023-05-20T08:46:53.034Z,1.48
2023-05-20T08:49:21.872Z,1.25
2023-05-20T08:51:51.626Z,1.35
2023-05-20T08:54:20.989Z,1.45
2023-05-20T08:56:49.370Z,1.20
2023-05-20T08:59:19.054Z,1.60
2023-05-20T09:01:47.029Z,1.23
2023-05-20T09:04:15.017Z,1.33
2023-05-20T09:06:46.889Z,1.75
2023-05-20T09:09:16.321Z,1.48
2023-05-20T09:11:44.670Z,1.88
2023-05-20T09:14:12.604Z,1.52
2023-05-20T09:16:44.209Z,1.77
2023-05-20T09:19:12.309Z,1.00
2023-05-20T09:21:45.221Z,1.80
2023-05-20T09:24:13.186Z,1.30
2023-05-20T09:26:42.843Z,1.77
2023-05-20T09:29:10.810Z,2.17
2023-05-20T09:32:03.215Z,2.45
2023-05-20T09:34:32.818Z,1.50
2023-05-20T09:37:03.740Z,2.08
2023-05-20T09:39:39.370Z,1.88
2023-05-20T09:42:15.452Z,1.60
2023-05-20T09:44:45.147Z,1.90
2023-05-20T09:47:14.044Z,2.08
2023-05-20T09:49:42.793Z,2.55
2023-05-20T09:52:13.863Z,2.30
2023-05-20T09:54:42.162Z,1.70
2023-05-20T09:57:11.626Z,1.58
2023-05-20T09:59:39.667Z,1.50
2023-05-20T10:02:08.082Z,1.65
2023-05-20T10:04:38.427Z,1.55
2023-05-20T10:07:57.572Z,1.38
2023-05-20T10:10:34.866Z,2.40
2023-05-20T10:13:14.800Z,1.63
2023-05-20T10:15:50.817Z,1.50
2023-05-20T10:18:30.321Z,2.25
2023-05-20T10:20:58.485Z,1.80
2023-05-20T10:23:30.999Z,1.92
2023-05-20T10:25:59.965Z,1.40
2023-05-20T10:28:36.444Z,1.33
2023-05-20T10:31:16.065Z,1.73
2023-05-20T10:33:44.688Z,1.27
2023-05-20T10:36:24.119Z,1.50
2023-05-20T10:38:56.395Z,1.05
2023-05-20T10:41:27.555Z,1.60
2023-05-20T10:44:04.262Z,1.70
2023-05-20T10:46:48.209Z,1.85
2023-05-20T10:49:25.148Z,1.90
2023-05-20T10:51:55.914Z,1.55
2023-05-20T10:54:26.962Z,2.00
2023-05-20T10:56:55.362Z,1.60
2023-05-20T10:59:24.981Z,1.50
2023-05-20T11:01:53.256Z,1.63
2023-05-20T11:04:21.425Z,1.55
2023-05-20T11:06:54.215Z,1.10
2023-05-20T11:09:25.501Z,1.40
2023-05-20T11:11:54.955Z,0.93
2023-05-20T11:14:24.249Z,1.85
2023-05-20T11:16:58.141Z,1.92
2023-05-20T11:19:26.613Z,2.28
2023-05-20T11:21:57.108Z,1.88
2023-05-20T11:24:27.345Z,1.50
2023-05-20T11:26:55.874Z,1.50
2023-05-20T11:29:28.506Z,1.33
2023-05-20T11:31:56.635Z,1.15
2023-05-20T11:34:34.013Z,1.45
2023-05-20T11:37:02.433Z,2.22
2023-05-20T11:39:33.137Z,1.70
2023-05-20T11:42:01.169Z,1.70
2023-05-20T11:44:30.646Z,1.17
2023-05-20T11:47:01.959Z,1.52
2023-05-20T11:49:32.893Z,1.38
2023-05-20T11:52:04.732Z,1.35
2023-05-20T11:54:37.050Z,1.65
2023-05-20T11:57:06.990Z,2.10
2023-05-20T11:59:39.915Z,1.70
2023-05-20T12:02:10.680Z,2.05
2023-05-20T12:04:43.080Z,2.13
2023-05-20T12:07:11.500Z,1.95
2023-05-20T12:09:39.449Z,1.70
2023-05-20T12:12:08.278Z,1.55
2023-05-20T12:14:37.677Z,1.40
2023-05-20T12:17:06.050Z,1.80
2023-05-20T12:19:36.079Z,1.40
2023-05-20T12:22:04.702Z,1.50
2023-05-20T12:24:32.750Z,1.45
2023-05-20T12:27:00.784Z,1.05
2023-05-20T12:29:31.289Z,1.50
2023-05-20T12:32:00.921Z,1.40
2023-05-20T12:34:31.059Z,0.95
2023-05-20T12:37:01.911Z,1.50
2023-05-20T12:39:29.905Z,2.03
2023-05-20T12:41:57.987Z,1.48
2023-05-20T12:44:26.043Z,1.50
2023-05-20T12:46:55.307Z,1.52
2023-05-20T12:49:30.110Z,1.60
2023-05-20T12:52:03.505Z,1.67
2023-05-20T12:54:36.226Z,1.15
2023-05-20T12:57:06.401Z,1.60
2023-05-20T12:59:34.491Z,1.65
2023-05-20T13:02:06.263Z,1.60
2023-05-20T13:04:37.543Z,1.92
2023-05-20T13:07:06.229Z,1.40
2023-05-20T13:09:35.514Z,1.30
2023-05-20T13:12:03.695Z,0.95
2023-05-20T13:14:31.862Z,2.03
2023-05-20T13:16:59.898Z,1.50
2023-05-20T13:19:28.026Z,1.92
2023-05-20T13:21:59.633Z,1.60
2023-05-20T13:24:27.659Z,2.20
2023-05-20T13:27:02.054Z,1.40
2023-05-20T13:29:30.616Z,1.48
2023-05-20T13:32:01.615Z,1.30
2023-05-20T13:34:30.731Z,1.60
2023-05-20T13:37:03.172Z,1.40
2023-05-20T13:39:35.708Z,1.40
2023-05-20T13:42:04.336Z,1.67
2023-05-20T13:44:38.335Z,1.30
2023-05-20T13:47:11.691Z,1.60
2023-05-20T13:49:39.668Z,1.63
2023-05-20T13:52:09.189Z,2.33
2023-05-20T13:54:41.918Z,2.80
2023-05-20T13:57:10.563Z,2.13
2023-05-20T13:59:38.593Z,1.45
2023-05-20T14:02:08.586Z,1.83
2023-05-20T14:04:44.749Z,1.25
2023-05-20T14:07:14.204Z,2.08
2023-05-20T14:09:42.288Z,1.50
2023-05-20T14:12:10.446Z,2.00
2023-05-20T14:14:38.390Z,1.65
2023-05-20T14:17:06.386Z,1.70
2023-05-20T14:19:37.356Z,2.10
2023-05-20T14:22:05.732Z,1.90
2023-05-20T14:24:36.547Z,1.77
2023-05-20T14:27:07.380Z,1.65
2023-05-20T14:29:35.426Z,2.75
2023-05-20T14:32:04.990Z,2.08
2023-05-20T14:34:33.085Z,2.05
2023-05-20T14:37:05.550Z,1.58
2023-05-20T14:39:35.291Z,2.33
2023-05-20T14:42:04.133Z,2.45
2023-05-20T14:44:34.887Z,1.40
2023-05-20T14:47:03.496Z,1.60
2023-05-20T14:49:32.728Z,2.38
2023-05-20T14:52:00.730Z,2.20
2023-05-20T14:54:28.714Z,1.70
2023-05-20T14:56:58.019Z,1.52
2023-05-20T14:59:26.161Z,1.83
2023-05-20T15:01:56.993Z,1.90
2023-05-20T15:04:28.036Z,2.03
2023-05-20T15:06:57.729Z,1.40
2023-05-20T15:09:26.128Z,1.48
2023-05-20T15:11:54.566Z,2.00
2023-05-20T15:14:23.998Z,1.10
2023-05-20T15:16:54.742Z,1.60
2023-05-20T15:19:22.865Z,1.95
2023-05-20T15:21:51.766Z,3.03
2023-05-20T15:24:19.909Z,1.80
2023-05-20T15:26:47.924Z,1.75
2023-05-20T15:29:16.600Z,3.47
2023-05-20T15:31:46.513Z,2.13
2023-05-20T15:34:14.550Z,2.60
2023-05-20T15:36:42.491Z,2.20
2023-05-20T15:39:11.013Z,2.55
2023-05-20T15:41:40.625Z,1.70
2023-05-20T15:44:08.789Z,1.63
2023-05-20T15:46:36.937Z,1.45
2023-05-20T15:49:06.351Z,2.00
2023-05-20T15:51:34.330Z,2.58
2023-05-20T15:54:02.298Z,1.80
2023-05-20T15:56:30.605Z,2.50
2023-05-20T15:58:58.582Z,1.98
2023-05-20T16:01:28.317Z,1.95
2023-05-20T16:03:58.201Z,2.28
2023-05-20T16:06:27.788Z,1.80
2023-05-20T16:08:56.015Z,1.55
2023-05-20T16:11:24.084Z,2.58
2023-05-20T16:13:52.119Z,2.13
2023-05-20T16:16:20.224Z,1.75
2023-05-20T16:18:48.222Z,2.38
2023-05-20T16:21:16.441Z,1.83
2023-05-20T16:23:48.350Z,2.35
2023-05-20T16:26:17.239Z,1.70
2023-05-20T16:28:45.441Z,1.90
2023-05-20T16:31:13.402Z,1.90
2023-05-20T16:33:41.351Z,2.38
2023-05-20T16:36:09.339Z,2.03
2023-05-20T16:38:37.315Z,1.92
2023-05-20T16:41:06.668Z,2.10
2023-05-20T16:43:34.669Z,2.33
2023-05-20T16:46:02.781Z,2.08
2023-05-20T16:48:30.800Z,3.45
2023-05-20T16:50:58.790Z,2.97
2023-05-20T16:53:27.110Z,2.10
2023-05-20T16:55:56.000Z,3.22
2023-05-20T16:58:25.602Z,1.92
2023-05-20T17:00:55.102Z,2.95
2023-05-20T17:03:23.469Z,3.03
2023-05-20T17:05:51.434Z,2.70
2023-05-20T17:08:19.517Z,2.40
2023-05-20T17:10:50.334Z,2.70
2023-05-20T17:13:22.549Z,2.40
2023-05-20T17:15:51.905Z,3.88
2023-05-20T17:18:19.907Z,3.47
2023-05-20T17:20:48.043Z,2.38
2023-05-20T17:23:16.056Z,3.08
2023-05-20T17:25:44.617Z,2.80
2023-05-20T17:28:12.625Z,3.13
2023-05-20T17:30:40.606Z,3.20
2023-05-20T17:33:11.056Z,2.70
2023-05-20T17:35:39.149Z,2.63
2023-05-20T17:38:07.171Z,3.35
2023-05-20T17:40:35.438Z,3.70
2023-05-20T17:43:03.597Z,4.35
2023-05-20T17:45:31.641Z,4.13
2023-05-20T17:47:59.610Z,4.85
2023-05-20T17:50:28.971Z,6.03
2023-05-20T17:52:56.961Z,6.03
2023-05-20T17:55:24.891Z,4.93
2023-05-20T17:57:52.853Z,4.40
2023-05-20T18:00:21.658Z,4.15
2023-05-20T18:02:49.854Z,4.30
2023-05-20T18:05:18.158Z,3.72
2023-05-20T18:07:48.872Z,5.95
2023-05-20T18:10:16.842Z,4.15
2023-05-20T18:12:45.326Z,3.05
2023-05-20T18:15:14.180Z,3.85
2023-05-20T18:17:42.263Z,3.95
2023-05-20T18:20:11.336Z,3.72
2023-05-20T18:22:42.647Z,3.10
2023-05-20T18:25:12.620Z,4.30
2023-05-20T18:27:40.643Z,5.93
2023-05-20T18:30:10.149Z,3.95
2023-05-20T18:32:41.609Z,2.72
2023-05-20T18:35:14.288Z,3.42
2023-05-20T18:37:42.399Z,4.80
2023-05-20T18:40:12.807Z,2.92
2023-05-20T18:42:40.944Z,3.63
2023-05-20T18:45:10.087Z,2.78
2023-05-20T18:47:38.073Z,3.40
2023-05-20T18:50:07.107Z,2.17
2023-05-20T18:52:35.100Z,3.45
2023-05-20T18:55:03.220Z,3.80
2023-05-20T18:57:32.583Z,3.85
2023-05-20T19:00:02.424Z,4.70
2023-05-20T19:02:30.539Z,2.85
2023-05-20T19:04:58.547Z,3.40
2023-05-20T19:07:26.575Z,3.78
2023-05-20T19:09:54.722Z,2.65
2023-05-20T19:12:22.670Z,2.50
2023-05-20T19:14:52.011Z,3.42
2023-05-20T19:17:21.270Z,4.70
2023-05-20T19:19:49.492Z,3.22
2023-05-20T19:22:17.600Z,3.70
2023-05-20T19:24:48.654Z,3.15
2023-05-20T19:27:22.627Z,4.40
2023-05-20T19:29:51.941Z,4.28
2023-05-20T19:32:19.942Z,3.95
2023-05-20T19:34:47.883Z,3.03
2023-05-20T19:37:16.027Z,3.55
2023-05-20T19:39:44.089Z,3.33
2023-05-20T19:42:12.064Z,3.42
2023-05-20T19:44:39.996Z,2.92
2023-05-20T19:47:09.327Z,3.20
2023-05-20T19:49:37.275Z,2.90
2023-05-20T19:52:06.287Z,3.75
2023-05-20T19:54:34.210Z,2.08
2023-05-20T19:57:02.236Z,2.30
2023-05-20T19:59:30.827Z,2.70
2023-05-20T20:02:02.762Z,2.13
2023-05-20T20:04:32.275Z,3.42
2023-05-20T20:07:00.887Z,3.50
2023-05-20T20:09:31.697Z,2.75
2023-05-20T20:11:59.695Z,2.85
2023-05-20T20:14:27.684Z,3.63
2023-05-20T20:16:55.609Z,2.83
2023-05-20T20:19:23.603Z,3.20
2023-05-20T20:21:55.700Z,4.18
2023-05-20T20:24:24.337Z,2.67
2023-05-20T20:26:54.257Z,3.50
2023-05-20T20:29:22.691Z,2.70
2023-05-20T20:31:50.824Z,3.50
2023-05-20T20:34:18.940Z,3.75
2023-05-20T20:36:47.863Z,3.75
2023-05-20T20:39:19.697Z,3.17
2023-05-20T20:41:50.109Z,2.60
2023-05-20T20:44:20.860Z,2.53
2023-05-20T20:46:50.708Z,2.65
2023-05-20T20:49:18.920Z,2.78
2023-05-20T20:51:47.347Z,2.55
2023-05-20T20:54:16.841Z,2.80
2023-05-20T20:56:46.947Z,1.98
2023-05-20T20:59:15.753Z,3.00
2023-05-20T21:01:44.763Z,2.30
2023-05-20T21:04:13.853Z,2.70
2023-05-20T21:06:42.162Z,2.58
2023-05-20T21:09:11.474Z,2.42
2023-05-20T21:11:42.805Z,3.10
2023-05-20T21:14:11.324Z,2.15
2023-05-20T21:16:39.600Z,3.20
2023-05-20T21:19:07.684Z,2.50
2023-05-20T21:21:36.142Z,3.35
2023-05-20T21:24:04.151Z,2.25
2023-05-20T21:26:32.166Z,2.97
2023-05-20T21:29:01.508Z,3.20
2023-05-20T21:31:29.542Z,2.60
2023-05-20T21:33:57.615Z,2.60
2023-05-20T21:36:25.608Z,1.95
2023-05-20T21:38:53.554Z,2.25
2023-05-20T21:41:23.313Z,3.53
2023-05-20T21:43:51.510Z,2.10
2023-05-20T21:46:21.191Z,3.67
2023-05-20T21:48:49.224Z,3.22
2023-05-20T21:51:17.299Z,2.67
2023-05-20T21:53:45.243Z,2.53
2023-05-20T21:56:13.238Z,2.30
2023-05-20T21:58:42.069Z,2.20
2023-05-20T22:01:10.565Z,2.40
2023-05-20T22:03:40.554Z,2.63
2023-05-20T22:06:09.286Z,2.17
2023-05-20T22:08:37.273Z,2.35
2023-05-20T22:11:07.023Z,2.30
2023-05-20T22:13:36.336Z,3.17
2023-05-20T22:16:05.406Z,2.13
2023-05-20T22:18:33.497Z,2.05
2023-05-20T22:21:03.877Z,1.55
2023-05-20T22:23:31.802Z,1.42
2023-05-20T22:25:59.745Z,2.78
2023-05-20T22:28:27.755Z,2.83
2023-05-20T22:30:56.135Z,2.35
2023-05-20T22:33:24.260Z,2.03
2023-05-20T22:35:53.483Z,1.60
2023-05-20T22:38:23.793Z,1.75
2023-05-20T22:40:51.791Z,2.20
2023-05-20T22:43:23.088Z,2.15
2023-05-20T22:45:51.097Z,2.75
2023-05-20T22:48:21.809Z,2.08
2023-05-20T22:50:50.055Z,2.20
2023-05-20T22:53:17.978Z,1.58
2023-05-20T22:55:47.389Z,2.60
2023-05-20T22:58:16.346Z,2.00
2023-05-20T23:00:44.967Z,2.60
2023-05-20T23:03:13.284Z,2.33
2023-05-20T23:05:41.256Z,2.65
2023-05-20T23:08:09.162Z,2.22
2023-05-20T23:10:39.301Z,2.30
2023-05-20T23:13:08.633Z,1.52
2023-05-20T23:15:36.716Z,2.15
2023-05-20T23:18:05.093Z,1.55
2023-05-20T23:20:33.174Z,1.77
2023-05-20T23:23:08.219Z,2.72
2023-05-20T23:25:39.116Z,1.77
2023-05-20T23:28:13.502Z,2.35
2023-05-20T23:30:41.600Z,2.35
2023-05-20T23:33:09.625Z,1.60
2023-05-20T23:35:41.361Z,1.98
2023-05-20T23:38:09.442Z,1.65
2023-05-20T23:40:37.556Z,1.55
2023-05-20T23:43:05.589Z,1.55
2023-05-20T23:45:35.050Z,1.50
2023-05-20T23:48:03.470Z,2.38
2023-05-20T23:50:32.626Z,2.97
2023-05-20T23:53:00.763Z,1.63
2023-05-20T23:55:31.955Z,3.42
2023-05-20T23:57:59.936Z,2.55
